Time;durP1;ratioP1;P1;durP2;ratioP2;P2;SDS_P1;SDS_P2;PMS_P1;PMS_P2;Temp;Humidity;BMP_temperature;BMP_pressure;BME280_temperature;BME280_humidity;BME280_pressure;Samples;Min_cycle;Max_cycle;Signal;HPM_P1;HPM_P2
2024/02/25 00:00:53;;;;;;;7.70;5.13;;;;;;;;;;5070784;28;20085;-50
2024/02/25 00:03:19;;;;;;;8.02;4.88;;;;;;;;;;5055439;28;20033;-51
2024/02/25 00:05:46;;;;;;;7.10;5.38;;;;;;;;;;5049495;28;20072;-50
2024/02/25 00:08:12;;;;;;;;;;;;;;;;;;5065847;28;20036;-51
2024/02/25 00:10:39;;;;;;;8.52;5.13;;;;;;;;;;5060964;28;20294;-51
2024/02/25 00:13:05;;;;;;;8.60;5.57;;;;;;;;;;5069870;28;20398;-52
2024/02/25 00:15:31;;;;;;;5.95;4.22;;;;;;;;;;5067451;28;20021;-51
2024/02/25 00:17:57;;;;;;;10.38;4.65;;;;;;;;;;5051753;28;20036;-50
2024/02/25 00:20:23;;;;;;;5.15;4.15;;;;;;;;;;5057505;28;20095;-51
2024/02/25 00:22:50;;;;;;;5.28;3.97;;;;;;;;;;5070233;28;20044;-52
2024/02/25 00:25:17;;;;;;;5.72;5.13;;;;;;;;;;5070951;28;20379;-49
2024/02/25 00:27:43;;;;;;;7.03;4.72;;;;;;;;;;5069495;28;20086;-51
2024/02/25 00:30:09;;;;;;;6.60;4.80;;;;;;;;;;5060487;28;20083;-51
2024/02/25 00:32:35;;;;;;;6.65;4.53;;;;;;;;;;5070432;28;20028;-50
2024/02/25 00:35:02;;;;;;;6.97;4.38;;;;;;;;;;5070096;28;20107;-51
2024/02/25 00:37:28;;;;;;;9.50;4.97;;;;;;;;;;5067989;28;20028;-51
2024/02/25 00:39:54;;;;;;;7.88;4.80;;;;;;;;;;5069309;28;20509;-51
2024/02/25 00:42:20;;;;;;;5.97;4.22;;;;;;;;;;5068128;28;20068;-51
2024/02/25 00:44:48;;;;;;;9.02;4.68;;;;;;;;;;5051312;28;20116;-51
2024/02/25 00:47:17;;;;;;;6.95;4.53;;;;;;;;;;5068753;28;20032;-50
2024/02/25 00:49:43;;;;;;;8.40;4.53;;;;;;;;;;5062164;28;20063;-51
2024/02/25 00:52:09;;;;;;;9.53;5.17;;;;;;;;;;5070944;28;20014;-51
2024/02/25 00:54:37;;;;;;;10.15;5.82;;;;;;;;;;5071120;28;20028;-51
2024/02/25 00:57:03;;;;;;;;;;;;;;;;;;5071455;28;20391;-52
2024/02/25 00:59:29;;;;;;;8.98;5.40;;;;;;;;;;5064210;28;20102;-52
2024/02/25 01:01:55;;;;;;;8.88;5.20;;;;;;;;;;5063697;28;20037;-50
2024/02/25 01:04:21;;;;;;;13.73;5.13;;;;;;;;;;5051046;28;20411;-50
2024/02/25 01:06:48;;;;;;;7.63;5.93;;;;;;;;;;5050540;28;20448;-51
2024/02/25 01:09:15;;;;;;;10.40;5.70;;;;;;;;;;5053731;28;20041;-51
2024/02/25 01:11:41;;;;;;;9.27;5.20;;;;;;;;;;5069900;28;20033;-51
2024/02/25 01:14:07;;;;;;;6.30;5.18;;;;;;;;;;5069371;28;20278;-52
2024/02/25 01:16:33;;;;;;;11.43;5.47;;;;;;;;;;5064103;28;20029;-51
2024/02/25 01:19:00;;;;;;;7.43;4.80;;;;;;;;;;5055359;28;20112;-50
2024/02/25 01:21:26;;;;;;;9.97;5.23;;;;;;;;;;5056601;28;20115;-52
2024/02/25 01:23:52;;;;;;;9.10;5.38;;;;;;;;;;5074413;28;20830;-52
2024/02/25 01:26:18;;;;;;;6.43;5.75;;;;;;;;;;5073911;28;20025;-51
2024/02/25 01:28:46;;;;;;;7.10;5.30;;;;;;;;;;5071360;28;20067;-52
2024/02/25 01:31:13;;;;;;;9.23;5.72;;;;;;;;;;5057408;28;20068;-52
2024/02/25 01:33:39;;;;;;;7.35;4.60;;;;;;;;;;5070165;28;20033;-52
2024/02/25 01:36:06;;;;;;;8.05;4.97;;;;;;;;;;5073900;28;20024;-52
2024/02/25 01:38:32;;;;;;;9.95;4.63;;;;;;;;;;5074160;28;20446;-50
2024/02/25 01:40:59;;;;;;;7.32;5.28;;;;;;;;;;5057538;28;20098;-51
2024/02/25 01:43:25;;;;;;;8.50;5.80;;;;;;;;;;5053126;28;20402;-52
2024/02/25 01:45:51;;;;;;;9.93;5.13;;;;;;;;;;5061248;28;20025;-50
2024/02/25 01:48:22;;;;;;;7.73;5.57;;;;;;;;;;5072448;28;20033;-53
2024/02/25 01:50:50;;;;;;;6.82;4.38;;;;;;;;;;5059085;28;20031;-51
2024/02/25 01:53:16;;;;;;;7.65;4.72;;;;;;;;;;5053949;28;20074;-51
2024/02/25 01:55:49;;;;;;;6.63;5.03;;;;;;;;;;5053666;28;20487;-50
2024/02/25 01:58:17;;;;;;;8.90;5.45;;;;;;;;;;5054056;28;20090;-51
2024/02/25 02:00:44;;;;;;;7.65;4.93;;;;;;;;;;5058879;28;20534;-51
2024/02/25 02:03:10;;;;;;;7.25;5.10;;;;;;;;;;5053703;28;20032;-50
2024/02/25 02:05:37;;;;;;;6.57;5.43;;;;;;;;;;5053213;28;20399;-50
2024/02/25 02:08:03;;;;;;;9.40;4.93;;;;;;;;;;5054236;28;20127;-53
2024/02/25 02:10:29;;;;;;;7.65;5.57;;;;;;;;;;5064866;28;20109;-51
2024/02/25 02:12:56;;;;;;;8.38;5.90;;;;;;;;;;5073686;28;20029;-51
2024/02/25 02:15:22;;;;;;;11.73;6.57;;;;;;;;;;5068942;28;20101;-51
2024/02/25 02:17:48;;;;;;;10.10;6.53;;;;;;;;;;5073461;28;20123;-51
2024/02/25 02:20:17;;;;;;;11.57;6.83;;;;;;;;;;5064248;28;20411;-53
2024/02/25 02:22:43;;;;;;;6.85;5.10;;;;;;;;;;5053421;28;20350;-49
2024/02/25 02:25:10;;;;;;;7.32;5.05;;;;;;;;;;5053230;28;20448;-51
2024/02/25 02:27:37;;;;;;;8.50;4.85;;;;;;;;;;5051715;28;20036;-52
2024/02/25 02:30:03;;;;;;;7.15;4.78;;;;;;;;;;5060163;28;20475;-56
2024/02/25 02:32:30;;;;;;;7.25;4.88;;;;;;;;;;5070399;28;20399;-51
2024/02/25 02:34:56;;;;;;;8.73;5.00;;;;;;;;;;5073118;28;20470;-50
2024/02/25 02:37:22;;;;;;;9.10;4.95;;;;;;;;;;5072968;28;20269;-50
2024/02/25 02:39:48;;;;;;;7.10;4.38;;;;;;;;;;5069926;28;20360;-50
2024/02/25 02:42:14;;;;;;;6.60;4.40;;;;;;;;;;5071807;28;20040;-51
2024/02/25 02:44:45;;;;;;;7.47;5.07;;;;;;;;;;5073035;28;20368;-52
2024/02/25 02:47:12;;;;;;;8.15;5.47;;;;;;;;;;5059647;28;20033;-53
2024/02/25 02:49:38;;;;;;;8.30;4.55;;;;;;;;;;5073098;28;20029;-50
2024/02/25 02:52:04;;;;;;;9.27;4.90;;;;;;;;;;5064598;28;20079;-51
2024/02/25 02:54:31;;;;;;;8.73;5.20;;;;;;;;;;5052843;28;20017;-52
2024/02/25 02:56:57;;;;;;;8.57;6.22;;;;;;;;;;5052564;28;20479;-51
2024/02/25 02:59:23;;;;;;;11.02;5.82;;;;;;;;;;5051431;28;20033;-51
2024/02/25 03:01:50;;;;;;;9.23;5.70;;;;;;;;;;5052578;28;20434;-51
2024/02/25 03:04:17;;;;;;;6.28;5.38;;;;;;;;;;5059645;28;20021;-50
2024/02/25 03:06:43;;;;;;;7.55;5.40;;;;;;;;;;5072166;28;20028;-51
2024/02/25 03:09:10;;;;;;;10.35;5.97;;;;;;;;;;5072582;28;20056;-51
2024/02/25 03:11:36;;;;;;;7.65;5.15;;;;;;;;;;5054520;28;20028;-50
2024/02/25 03:14:02;;;;;;;9.88;6.78;;;;;;;;;;5072370;28;20021;-52
2024/02/25 03:16:28;;;;;;;11.57;7.00;;;;;;;;;;5070946;28;20040;-51
2024/02/25 03:18:54;;;;;;;8.10;6.07;;;;;;;;;;5071470;28;20024;-53
2024/02/25 03:21:21;;;;;;;9.07;6.00;;;;;;;;;;5072302;28;20510;-50
2024/02/25 03:23:47;;;;;;;7.43;5.45;;;;;;;;;;5072217;28;20029;-51
2024/02/25 03:26:14;;;;;;;9.23;5.70;;;;;;;;;;5071966;28;20508;-50
2024/02/25 03:28:40;;;;;;;9.13;5.68;;;;;;;;;;5071998;28;20032;-50
2024/02/25 03:31:06;;;;;;;8.35;5.63;;;;;;;;;;5072593;28;20111;-51
2024/02/25 03:33:33;;;;;;;11.95;5.95;;;;;;;;;;5054196;28;20486;-50
2024/02/25 03:35:59;;;;;;;7.00;5.53;;;;;;;;;;5072172;28;20028;-51
2024/02/25 03:38:25;;;;;;;7.65;5.57;;;;;;;;;;5072052;28;20498;-51
2024/02/25 03:40:51;;;;;;;8.65;5.30;;;;;;;;;;5062152;28;20025;-51
2024/02/25 03:43:17;;;;;;;10.13;5.93;;;;;;;;;;5051860;28;20037;-50
2024/02/25 03:45:44;;;;;;;10.37;5.83;;;;;;;;;;5050387;28;20139;-50
2024/02/25 03:48:10;;;;;;;7.93;5.80;;;;;;;;;;5051891;28;20059;-51
2024/02/25 03:50:36;;;;;;;9.00;5.88;;;;;;;;;;5052919;28;20021;-51
2024/02/25 03:53:03;;;;;;;8.40;6.65;;;;;;;;;;5051794;28;20075;-52
2024/02/25 03:55:29;;;;;;;9.47;6.27;;;;;;;;;;5050253;28;20029;-51
2024/02/25 03:57:56;;;;;;;7.50;5.20;;;;;;;;;;5057492;28;20044;-50
2024/02/25 04:00:23;;;;;;;7.50;6.20;;;;;;;;;;5051568;28;20040;-50
2024/02/25 04:02:49;;;;;;;11.90;5.80;;;;;;;;;;5051679;28;20468;-51
2024/02/25 04:05:15;;;;;;;9.93;6.07;;;;;;;;;;5062071;28;20165;-52
2024/02/25 04:07:42;;;;;;;13.83;5.97;;;;;;;;;;5068456;28;20433;-51
2024/02/25 04:10:09;;;;;;;10.95;5.82;;;;;;;;;;5071549;28;20250;-50
2024/02/25 04:12:35;;;;;;;;;;;;;;;;;;5062261;28;20430;-50
2024/02/25 04:15:02;;;;;;;8.57;5.78;;;;;;;;;;5066497;28;19915;-51
2024/02/25 04:17:29;;;;;;;13.03;5.50;;;;;;;;;;5058747;28;20402;-51
2024/02/25 04:19:56;;;;;;;7.25;5.53;;;;;;;;;;5071533;28;20482;-49
2024/02/25 04:22:23;;;;;;;7.72;5.00;;;;;;;;;;5060889;28;20063;-50
2024/02/25 04:24:49;;;;;;;8.88;5.43;;;;;;;;;;5051833;28;20056;-50
2024/02/25 04:27:16;;;;;;;16.98;8.70;;;;;;;;;;5050910;28;20025;-52
2024/02/25 04:29:43;;;;;;;14.93;7.88;;;;;;;;;;5033749;28;20081;-49
2024/02/25 04:32:10;;;;;;;11.60;6.43;;;;;;;;;;5051314;28;20029;-52
2024/02/25 04:34:36;;;;;;;12.27;6.20;;;;;;;;;;5062202;28;20038;-50
2024/02/25 04:37:03;;;;;;;8.90;6.13;;;;;;;;;;5069978;28;20101;-50
2024/02/25 04:39:29;;;;;;;8.40;6.32;;;;;;;;;;5069982;28;20029;-50
2024/02/25 04:41:56;;;;;;;8.25;5.53;;;;;;;;;;5071238;28;20492;-50
2024/02/25 04:44:22;;;;;;;7.63;5.33;;;;;;;;;;5070098;28;20032;-50
2024/02/25 04:46:48;;;;;;;7.30;5.05;;;;;;;;;;5070920;28;20548;-50
2024/02/25 04:49:18;;;;;;;10.15;5.93;;;;;;;;;;5071529;28;20035;-51
2024/02/25 04:51:44;;;;;;;7.80;6.30;;;;;;;;;;5072296;28;20389;-52
2024/02/25 04:54:13;;;;;;;14.15;7.28;;;;;;;;;;5074957;28;20459;-49
2024/02/25 04:56:42;;;;;;;12.43;6.75;;;;;;;;;;5074699;28;20059;-50
2024/02/25 04:59:09;;;;;;;9.75;7.00;;;;;;;;;;5073836;28;20401;-50
2024/02/25 05:01:35;;;;;;;11.68;6.10;;;;;;;;;;5073105;28;20060;-50
2024/02/25 05:04:01;;;;;;;7.77;5.93;;;;;;;;;;5071790;28;20479;-50
2024/02/25 05:06:28;;;;;;;7.32;5.13;;;;;;;;;;5072315;28;20047;-53
2024/02/25 05:08:54;;;;;;;8.18;6.35;;;;;;;;;;5071626;28;20402;-50
2024/02/25 05:11:20;;;;;;;9.40;5.88;;;;;;;;;;5060303;28;20048;-50
2024/02/25 05:13:46;;;;;;;8.90;6.15;;;;;;;;;;5051769;28;20029;-50
2024/02/25 05:16:13;;;;;;;11.05;5.50;;;;;;;;;;5053849;28;20028;-54
2024/02/25 05:18:40;;;;;;;;;;;;;;;;;;5059415;28;20057;-50
2024/02/25 05:21:06;;;;;;;7.93;6.10;;;;;;;;;;5063926;28;19908;-51
2024/02/25 05:23:33;;;;;;;11.00;6.85;;;;;;;;;;5054559;28;20076;-50
2024/02/25 05:25:59;;;;;;;11.50;6.60;;;;;;;;;;5053108;28;20029;-50
2024/02/25 05:28:25;;;;;;;7.97;6.32;;;;;;;;;;5054597;28;20315;-53
2024/02/25 05:30:51;;;;;;;8.80;6.23;;;;;;;;;;5059314;28;20475;-52
2024/02/25 05:33:18;;;;;;;9.77;6.83;;;;;;;;;;5065830;28;20028;-50
2024/02/25 05:35:44;;;;;;;8.77;6.10;;;;;;;;;;5050642;28;20037;-51
2024/02/25 05:38:10;;;;;;;10.70;6.70;;;;;;;;;;5074462;28;20696;-50
2024/02/25 05:40:40;;;;;;;11.07;5.50;;;;;;;;;;5058650;28;20029;-51
2024/02/25 05:43:07;;;;;;;9.20;6.28;;;;;;;;;;5054279;28;20430;-50
2024/02/25 05:45:33;;;;;;;7.85;5.80;;;;;;;;;;5053884;28;20450;-51
2024/02/25 05:48:00;;;;;;;7.00;5.82;;;;;;;;;;5054203;28;20391;-50
2024/02/25 05:50:26;;;;;;;10.85;6.85;;;;;;;;;;5052850;28;20033;-50
2024/02/25 05:52:53;;;;;;;12.27;6.43;;;;;;;;;;5069237;28;20037;-49
2024/02/25 05:55:19;;;;;;;8.90;5.22;;;;;;;;;;5073927;28;20089;-50
2024/02/25 05:57:45;;;;;;;10.30;7.05;;;;;;;;;;5072684;28;20033;-50
2024/02/25 06:00:12;;;;;;;9.73;6.65;;;;;;;;;;5072704;28;20032;-51
2024/02/25 06:02:45;;;;;;;8.02;6.65;;;;;;;;;;5073460;28;20040;-50
2024/02/25 06:05:15;;;;;;;9.98;8.50;;;;;;;;;;5073339;28;20032;-49
2024/02/25 06:07:42;;;;;;;11.65;6.57;;;;;;;;;;5072009;28;20574;-53
2024/02/25 06:10:08;;;;;;;9.43;6.00;;;;;;;;;;5061773;28;20033;-50
2024/02/25 06:12:38;;;;;;;9.35;6.80;;;;;;;;;;5061929;28;20062;-50
2024/02/25 06:15:13;;;;;;;11.50;6.63;;;;;;;;;;5073445;28;20029;-50
2024/02/25 06:17:40;;;;;;;10.02;7.25;;;;;;;;;;5053007;28;20064;-51
2024/02/25 06:20:10;;;;;;;13.15;10.18;;;;;;;;;;5053637;28;20076;-50
2024/02/25 06:22:36;;;;;;;23.38;15.52;;;;;;;;;;5054564;28;20029;-50
2024/02/25 06:25:04;;;;;;;20.85;14.57;;;;;;;;;;5052244;28;20032;-53
2024/02/25 06:27:31;;;;;;;17.15;11.73;;;;;;;;;;5040446;28;20075;-50
2024/02/25 06:29:57;;;;;;;17.52;11.77;;;;;;;;;;5071450;28;20029;-51
2024/02/25 06:32:23;;;;;;;18.65;12.02;;;;;;;;;;5054358;28;20388;-50
2024/02/25 06:34:49;;;;;;;17.38;12.48;;;;;;;;;;5053423;28;20032;-50
2024/02/25 06:37:15;;;;;;;22.40;16.33;;;;;;;;;;5063308;28;20483;-51
2024/02/25 06:39:42;;;;;;;18.48;12.10;;;;;;;;;;5054939;28;20036;-50
2024/02/25 06:42:08;;;;;;;18.55;11.30;;;;;;;;;;5072252;28;20028;-51
2024/02/25 06:44:35;;;;;;;14.40;9.77;;;;;;;;;;5060392;28;20510;-50
2024/02/25 06:47:01;;;;;;;16.10;10.82;;;;;;;;;;5043412;28;20319;-50
2024/02/25 06:49:28;;;;;;;15.60;10.67;;;;;;;;;;5067836;28;20155;-52
2024/02/25 06:51:55;;;;;;;20.58;10.02;;;;;;;;;;5045770;28;20025;-50
2024/02/25 06:54:21;;;;;;;11.00;9.85;;;;;;;;;;5045678;28;20024;-51
2024/02/25 06:56:48;;;;;;;16.38;11.57;;;;;;;;;;5064158;28;20063;-50
2024/02/25 06:59:14;;;;;;;14.82;10.18;;;;;;;;;;5071456;28;20041;-51
2024/02/25 07:01:40;;;;;;;11.00;9.60;;;;;;;;;;5054455;28;20483;-49
2024/02/25 07:04:07;;;;;;;24.03;10.37;;;;;;;;;;5052698;28;20354;-50
2024/02/25 07:06:33;;;;;;;;;;;;;;;;;;5052691;28;20040;-50
2024/02/25 07:09:00;;;;;;;17.88;9.88;;;;;;;;;;5052670;28;19961;-50
2024/02/25 07:11:28;;;;;;;44.03;15.45;;;;;;;;;;5056146;28;20060;-50
2024/02/25 07:13:54;;;;;;;61.70;16.55;;;;;;;;;;5069005;28;20031;-52
2024/02/25 07:16:20;;;;;;;28.90;16.00;;;;;;;;;;5061498;28;20021;-50
2024/02/25 07:18:47;;;;;;;27.70;17.90;;;;;;;;;;5052520;28;20025;-51
2024/02/25 07:21:14;;;;;;;25.45;16.63;;;;;;;;;;5067987;28;20031;-49
2024/02/25 07:23:43;;;;;;;24.33;16.90;;;;;;;;;;5052278;28;20032;-50
2024/02/25 07:26:10;;;;;;;18.38;13.30;;;;;;;;;;5049745;28;20033;-49
2024/02/25 07:28:40;;;;;;;21.55;16.77;;;;;;;;;;5047396;28;20120;-52
2024/02/25 07:31:12;;;;;;;47.70;22.65;;;;;;;;;;5035754;28;20063;-49
2024/02/25 07:33:39;;;;;;;19.23;17.17;;;;;;;;;;5045228;28;20028;-48
2024/02/25 07:36:10;;;;;;;26.17;18.33;;;;;;;;;;5043343;28;20056;-48
2024/02/25 07:38:36;;;;;;;25.23;16.33;;;;;;;;;;5050743;28;20037;-47
2024/02/25 07:41:02;;;;;;;24.50;17.42;;;;;;;;;;5072084;28;20032;-47
2024/02/25 07:43:28;;;;;;;27.40;19.83;;;;;;;;;;5072032;28;20036;-48
2024/02/25 07:45:55;;;;;;;30.00;19.90;;;;;;;;;;5042805;28;20021;-49
2024/02/25 07:48:21;;;;;;;30.80;22.83;;;;;;;;;;5070020;28;20029;-49
2024/02/25 07:50:47;;;;;;;42.55;30.17;;;;;;;;;;5054693;28;20051;-50
2024/02/25 07:53:13;;;;;;;35.60;26.57;;;;;;;;;;5068343;28;20037;-49
2024/02/25 07:55:40;;;;;;;27.63;18.83;;;;;;;;;;5062119;28;20056;-49
2024/02/25 07:58:06;;;;;;;24.38;18.92;;;;;;;;;;5070586;28;20033;-49
2024/02/25 08:00:35;;;;;;;35.20;21.02;;;;;;;;;;5071450;28;20025;-49
2024/02/25 08:03:01;;;;;;;31.80;20.08;;;;;;;;;;5050488;28;20505;-49
2024/02/25 08:05:28;;;;;;;32.20;20.65;;;;;;;;;;5051523;28;20025;-50
2024/02/25 08:07:54;;;;;;;26.50;19.30;;;;;;;;;;5062735;28;20040;-50
2024/02/25 08:10:20;;;;;;;26.92;20.05;;;;;;;;;;5071820;28;20763;-51
2024/02/25 08:12:47;;;;;;;25.52;20.38;;;;;;;;;;5071700;28;20025;-49
2024/02/25 08:15:14;;;;;;;26.65;16.48;;;;;;;;;;5071432;28;20065;-50
2024/02/25 08:17:40;;;;;;;22.23;17.48;;;;;;;;;;5071469;28;20036;-49
2024/02/25 08:20:07;;;;;;;27.60;16.97;;;;;;;;;;5071589;28;20056;-49
2024/02/25 08:22:34;;;;;;;17.67;13.55;;;;;;;;;;5071523;28;20274;-49
2024/02/25 08:25:00;;;;;;;18.52;12.55;;;;;;;;;;5071524;28;20037;-48
2024/02/25 08:27:32;;;;;;;19.57;14.73;;;;;;;;;;5073721;28;20029;-49
2024/02/25 08:30:01;;;;;;;19.02;14.15;;;;;;;;;;5075672;28;20116;-51
2024/02/25 08:32:28;;;;;;;15.48;11.68;;;;;;;;;;5071354;28;20027;-52
2024/02/25 08:34:54;;;;;;;16.77;13.25;;;;;;;;;;5065303;28;20025;-49
2024/02/25 08:37:29;;;;;;;15.80;11.32;;;;;;;;;;5061575;28;20028;-49
2024/02/25 08:39:56;;;;;;;15.05;11.15;;;;;;;;;;5055529;28;20644;-49
2024/02/25 08:42:22;;;;;;;13.68;9.77;;;;;;;;;;5061566;28;20028;-49
2024/02/25 08:44:48;;;;;;;13.53;9.43;;;;;;;;;;5068943;28;20033;-50
2024/02/25 08:47:15;;;;;;;16.65;13.00;;;;;;;;;;5053607;28;20033;-48
2024/02/25 08:49:42;;;;;;;19.10;13.77;;;;;;;;;;5075142;28;20071;-50
2024/02/25 08:52:08;;;;;;;21.65;13.65;;;;;;;;;;5058892;28;20025;-51
2024/02/25 08:54:36;;;;;;;18.17;12.70;;;;;;;;;;5055146;28;20060;-50
2024/02/25 08:57:03;;;;;;;14.80;12.05;;;;;;;;;;5053611;28;20036;-52
2024/02/25 08:59:29;;;;;;;16.08;11.85;;;;;;;;;;5055167;28;20033;-50
2024/02/25 09:01:55;;;;;;;17.85;12.13;;;;;;;;;;5055060;28;20139;-50
2024/02/25 09:04:27;;;;;;;21.33;13.18;;;;;;;;;;5036724;28;20384;-49
2024/02/25 09:06:55;;;;;;;19.65;14.35;;;;;;;;;;5054902;28;20422;-50
2024/02/25 09:09:21;;;;;;;14.20;12.70;;;;;;;;;;5054984;28;20506;-49
2024/02/25 09:11:48;;;;;;;18.48;13.32;;;;;;;;;;5054666;28;20210;-48
2024/02/25 09:14:14;;;;;;;15.55;12.77;;;;;;;;;;5053648;28;20048;-49
2024/02/25 09:16:40;;;;;;;18.63;12.15;;;;;;;;;;5054392;28;20040;-49
2024/02/25 09:19:06;;;;;;;23.20;11.83;;;;;;;;;;5054578;28;20044;-50
2024/02/25 09:21:32;;;;;;;14.27;11.52;;;;;;;;;;5054688;28;20021;-49
2024/02/25 09:23:59;;;;;;;16.00;12.20;;;;;;;;;;5054694;28;20032;-50
2024/02/25 09:26:25;;;;;;;15.57;11.37;;;;;;;;;;5054467;28;20037;-49
2024/02/25 09:28:51;;;;;;;16.48;12.10;;;;;;;;;;5054606;28;20264;-50
2024/02/25 09:31:21;;;;;;;16.60;12.27;;;;;;;;;;5054532;28;20471;-50
2024/02/25 09:33:54;;;;;;;13.35;11.07;;;;;;;;;;5054305;28;20029;-49
2024/02/25 09:36:23;;;;;;;17.42;12.15;;;;;;;;;;5054264;28;20112;-50
2024/02/25 09:38:50;;;;;;;17.77;11.60;;;;;;;;;;5053081;28;20025;-49
2024/02/25 09:41:19;;;;;;;21.45;11.82;;;;;;;;;;5074302;28;20031;-49
2024/02/25 09:43:45;;;;;;;19.95;13.18;;;;;;;;;;5074188;28;20444;-50
2024/02/25 09:46:14;;;;;;;16.95;12.68;;;;;;;;;;5065883;28;20028;-46
2024/02/25 09:48:42;;;;;;;17.08;14.50;;;;;;;;;;5071148;28;20029;-48
2024/02/25 09:51:08;;;;;;;14.98;12.23;;;;;;;;;;5065771;28;20408;-47
2024/02/25 09:53:36;;;;;;;18.80;13.80;;;;;;;;;;5054005;28;20495;-48
2024/02/25 09:56:02;;;;;;;21.10;14.70;;;;;;;;;;5052553;28;20388;-50
2024/02/25 09:58:28;;;;;;;19.73;14.93;;;;;;;;;;5054007;28;20568;-51
2024/02/25 10:00:55;;;;;;;18.48;14.98;;;;;;;;;;5060747;28;20020;-49
2024/02/25 10:03:21;;;;;;;18.42;15.75;;;;;;;;;;5065574;28;20060;-48
2024/02/25 10:05:47;;;;;;;16.40;13.70;;;;;;;;;;5053531;28;20029;-48
2024/02/25 10:08:14;;;;;;;19.17;13.30;;;;;;;;;;5053578;28;20029;-49
2024/02/25 10:10:41;;;;;;;16.17;13.85;;;;;;;;;;5052493;28;20079;-48
2024/02/25 10:13:08;;;;;;;16.25;13.48;;;;;;;;;;5051488;28;20029;-49
2024/02/25 10:15:35;;;;;;;14.35;10.20;;;;;;;;;;5053610;28;20131;-50
2024/02/25 10:18:01;;;;;;;16.97;12.03;;;;;;;;;;5053698;28;20029;-50
2024/02/25 10:20:27;;;;;;;14.27;9.87;;;;;;;;;;5052342;28;20303;-52
2024/02/25 10:23:06;;;;;;;16.43;9.53;;;;;;;;;;5053468;28;20492;-49
2024/02/25 10:25:32;;;;;;;16.00;11.95;;;;;;;;;;5052724;28;20531;-47
2024/02/25 10:28:19;;;;;;;11.43;7.90;;;;;;;;;;5052888;28;20484;-50
2024/02/25 10:31:00;;;;;;;8.52;6.28;;;;;;;;;;5053451;28;20080;-48
2024/02/25 10:33:27;;;;;;;15.02;10.75;;;;;;;;;;5053217;28;20033;-49
2024/02/25 10:36:25;;;;;;;13.33;8.23;;;;;;;;;;5052923;28;20039;-47
2024/02/25 10:38:53;;;;;;;13.10;8.57;;;;;;;;;;5045203;28;20044;-48
2024/02/25 10:41:19;;;;;;;15.40;10.80;;;;;;;;;;5053186;28;20079;-48
2024/02/25 10:43:51;;;;;;;16.65;10.13;;;;;;;;;;5051971;28;20021;-50
2024/02/25 10:46:46;;;;;;;13.98;9.75;;;;;;;;;;5052813;28;20126;-48
2024/02/25 10:49:18;;;;;;;14.32;8.93;;;;;;;;;;5051294;28;20041;-47
2024/02/25 10:51:45;;;;;;;14.07;9.35;;;;;;;;;;5051668;28;20033;-48
2024/02/25 10:54:12;;;;;;;15.32;8.68;;;;;;;;;;5052957;28;20395;-47
2024/02/25 10:56:38;;;;;;;;;;;;;;;;;;5051711;28;20108;-48
2024/02/25 10:59:05;;;;;;;11.30;8.32;;;;;;;;;;5052729;28;19916;-48
2024/02/25 11:01:32;;;;;;;12.25;7.70;;;;;;;;;;5052763;28;20029;-49
2024/02/25 11:03:58;;;;;;;12.87;8.87;;;;;;;;;;5051477;28;20414;-48
2024/02/25 11:06:29;;;;;;;15.10;9.10;;;;;;;;;;5052444;28;20721;-48
2024/02/25 11:09:01;;;;;;;14.68;10.50;;;;;;;;;;5052494;28;20107;-47
2024/02/25 11:11:27;;;;;;;12.27;7.97;;;;;;;;;;5051335;28;20033;-47
2024/02/25 11:13:53;;;;;;;14.18;9.45;;;;;;;;;;5051330;28;20040;-48
2024/02/25 11:16:28;;;;;;;10.43;7.60;;;;;;;;;;5052273;28;20032;-48
2024/02/25 11:18:57;;;;;;;12.15;7.97;;;;;;;;;;5052455;28;20040;-48
2024/02/25 11:21:27;;;;;;;11.82;7.43;;;;;;;;;;5051165;28;20032;-48
2024/02/25 11:23:53;;;;;;;11.85;6.97;;;;;;;;;;5052234;28;20390;-48
2024/02/25 11:26:35;;;;;;;7.87;6.17;;;;;;;;;;5052036;28;20438;-48
2024/02/25 11:29:17;;;;;;;17.40;8.48;;;;;;;;;;5052127;28;20040;-46
2024/02/25 11:31:49;;;;;;;10.10;6.95;;;;;;;;;;5052004;28;20025;-46
2024/02/25 11:34:26;;;;;;;10.38;5.63;;;;;;;;;;5052115;28;20115;-49
2024/02/25 11:36:53;;;;;;;9.32;5.72;;;;;;;;;;5052701;28;20028;-49
2024/02/25 11:39:19;;;;;;;;;;;;;;;;;;5063400;28;20530;-49
2024/02/25 11:41:47;;;;;;;7.03;5.15;;;;;;;;;;5053096;28;19915;-48
2024/02/25 11:44:14;;;;;;;6.72;4.70;;;;;;;;;;5051951;28;20037;-48
2024/02/25 11:46:41;;;;;;;7.67;5.13;;;;;;;;;;5064189;28;20354;-50
2024/02/25 11:49:08;;;;;;;11.98;6.43;;;;;;;;;;5071610;28;20262;-50
2024/02/25 11:51:34;;;;;;;9.13;6.22;;;;;;;;;;5071922;28;20036;-52
2024/02/25 11:54:01;;;;;;;10.33;6.70;;;;;;;;;;5058944;28;20112;-50
2024/02/25 11:56:27;;;;;;;9.23;7.47;;;;;;;;;;5053047;28;20032;-50
2024/02/25 11:58:53;;;;;;;11.07;9.18;;;;;;;;;;5053311;28;20033;-49
2024/02/25 12:01:21;;;;;;;9.32;6.20;;;;;;;;;;5039093;28;20029;-50
2024/02/25 12:03:47;;;;;;;12.10;10.23;;;;;;;;;;5057344;28;20029;-51
2024/02/25 12:06:14;;;;;;;6.17;5.30;;;;;;;;;;5049578;28;20063;-48
2024/02/25 12:08:45;;;;;;;;;;;;;;;;;;5060225;28;20027;-48
2024/02/25 12:11:12;;;;;;;10.15;6.47;;;;;;;;;;5060339;28;19912;-48
2024/02/25 12:13:39;;;;;;;12.53;6.23;;;;;;;;;;5049840;28;20057;-47
2024/02/25 12:16:06;;;;;;;13.60;6.32;;;;;;;;;;5057743;28;20033;-48
2024/02/25 12:18:33;;;;;;;7.85;5.57;;;;;;;;;;5067838;28;20507;-48
2024/02/25 12:21:01;;;;;;;6.47;5.25;;;;;;;;;;5067890;28;20064;-49
2024/02/25 12:23:27;;;;;;;10.15;5.50;;;;;;;;;;5064618;28;20040;-48
2024/02/25 12:26:02;;;;;;;7.90;5.37;;;;;;;;;;5058510;28;20143;-47
2024/02/25 12:28:29;;;;;;;5.63;4.63;;;;;;;;;;5057319;28;20284;-49
2024/02/25 12:30:55;;;;;;;7.93;4.85;;;;;;;;;;5056811;28;20525;-49
2024/02/25 12:33:21;;;;;;;10.43;5.55;;;;;;;;;;5068736;28;20487;-47
2024/02/25 12:35:47;;;;;;;8.30;5.10;;;;;;;;;;5047115;28;20396;-48
2024/02/25 12:38:15;;;;;;;8.88;4.82;;;;;;;;;;5048720;28;20081;-48
2024/02/25 12:40:45;;;;;;;6.22;4.70;;;;;;;;;;5049653;28;20656;-48
2024/02/25 12:43:14;;;;;;;7.45;4.65;;;;;;;;;;5056567;28;20719;-47
2024/02/25 12:45:40;;;;;;;31.60;21.67;;;;;;;;;;5054209;28;20091;-47
2024/02/25 12:48:07;;;;;;;15.88;9.98;;;;;;;;;;5049624;28;20029;-48
2024/02/25 12:50:33;;;;;;;8.55;4.85;;;;;;;;;;5049679;28;20033;-48
2024/02/25 12:53:02;;;;;;;7.07;4.63;;;;;;;;;;5057151;28;20039;-48
2024/02/25 12:55:28;;;;;;;7.15;4.32;;;;;;;;;;5067791;28;20494;-49
2024/02/25 12:57:54;;;;;;;6.15;3.83;;;;;;;;;;5054991;28;20116;-50
2024/02/25 13:00:21;;;;;;;19.17;15.13;;;;;;;;;;5051158;28;20025;-49
2024/02/25 13:02:47;;;;;;;8.80;4.00;;;;;;;;;;5069604;28;20053;-48
2024/02/25 13:05:13;;;;;;;31.43;23.57;;;;;;;;;;5062564;28;20519;-49
2024/02/25 13:07:39;;;;;;;11.00;7.27;;;;;;;;;;5061139;28;20029;-50
2024/02/25 13:10:06;;;;;;;6.63;3.53;;;;;;;;;;5068142;28;20024;-50
2024/02/25 13:12:35;;;;;;;9.90;4.22;;;;;;;;;;5058224;28;20056;-48
2024/02/25 13:15:05;;;;;;;5.20;3.22;;;;;;;;;;5067665;28;20146;-48
2024/02/25 13:17:34;;;;;;;8.40;3.90;;;;;;;;;;5072458;28;20029;-48
2024/02/25 13:20:00;;;;;;;7.00;3.90;;;;;;;;;;5071072;28;20032;-49
2024/02/25 13:22:27;;;;;;;4.30;3.58;;;;;;;;;;5054350;28;20576;-48
2024/02/25 13:24:54;;;;;;;5.20;3.58;;;;;;;;;;5068744;28;20091;-48
2024/02/25 13:27:20;;;;;;;7.00;3.72;;;;;;;;;;5069730;28;20758;-48
2024/02/25 13:29:52;;;;;;;5.03;4.03;;;;;;;;;;5072718;28;20048;-47
2024/02/25 13:32:18;;;;;;;4.32;3.35;;;;;;;;;;5054447;28;20033;-48
2024/02/25 13:34:45;;;;;;;4.90;4.10;;;;;;;;;;5058348;28;20097;-52
2024/02/25 13:37:12;;;;;;;4.93;4.22;;;;;;;;;;5061232;28;20033;-49
2024/02/25 13:39:39;;;;;;;;;;;;;;;;;;5053296;28;20062;-48
2024/02/25 13:42:05;;;;;;;6.15;3.78;;;;;;;;;;5069717;28;19915;-49
2024/02/25 13:44:32;;;;;;;4.00;3.50;;;;;;;;;;5072725;28;20039;-48
2024/02/25 13:46:58;;;;;;;6.20;3.13;;;;;;;;;;5070967;28;20440;-52
2024/02/25 13:49:24;;;;;;;3.53;2.50;;;;;;;;;;5071177;28;20486;-49
2024/02/25 13:51:50;;;;;;;5.13;3.17;;;;;;;;;;5071060;28;20036;-48
2024/02/25 13:54:16;;;;;;;4.20;3.15;;;;;;;;;;5055378;28;20111;-50
2024/02/25 13:56:43;;;;;;;5.05;3.78;;;;;;;;;;5034315;28;20108;-50
2024/02/25 13:59:09;;;;;;;4.67;3.00;;;;;;;;;;5056394;28;20032;-52
2024/02/25 14:01:36;;;;;;;5.30;3.67;;;;;;;;;;5070451;28;20074;-50
2024/02/25 14:04:02;;;;;;;6.07;3.42;;;;;;;;;;5065316;28;20487;-49
2024/02/25 14:06:28;;;;;;;4.75;3.15;;;;;;;;;;5063298;28;20033;-51
2024/02/25 14:08:57;;;;;;;5.37;2.47;;;;;;;;;;5070680;28;20033;-52
2024/02/25 14:11:23;;;;;;;4.40;2.90;;;;;;;;;;5070304;28;20247;-52
2024/02/25 14:13:50;;;;;;;10.87;5.17;;;;;;;;;;5054113;28;20103;-53
2024/02/25 14:16:16;;;;;;;4.75;3.83;;;;;;;;;;5053156;28;20257;-52
2024/02/25 14:18:42;;;;;;;4.03;2.97;;;;;;;;;;5035523;28;20029;-51
2024/02/25 14:21:08;;;;;;;4.07;3.07;;;;;;;;;;5053481;28;20414;-52
2024/02/25 14:23:34;;;;;;;4.78;3.45;;;;;;;;;;5053034;28;20029;-49
2024/02/25 14:26:01;;;;;;;4.97;3.40;;;;;;;;;;5055544;28;20498;-52
2024/02/25 14:28:27;;;;;;;3.92;2.92;;;;;;;;;;5073134;28;20056;-50
2024/02/25 14:30:53;;;;;;;4.37;2.93;;;;;;;;;;5063189;28;20486;-52
2024/02/25 14:33:21;;;;;;;6.13;2.83;;;;;;;;;;5066066;28;20260;-52
2024/02/25 14:35:47;;;;;;;5.90;3.30;;;;;;;;;;5064899;28;20029;-52